• Join FlightAware (Why Join?)
  • Login
  • US Flag 
12:58PM EDT


 

Airport Tracker/Info


-or-


 

Live Flight TrackerFlight Track Log ✈ N712WB ✈ 24-Jun-2013 ✈ KJZI - KHDC

Flight Track Log - Related Links

Times and Time Zones

All times are in EDT time to prevent confusion due to time zone crossing. See the N712WB flight status page for this flight to view local times or setup timezone preferences in your user account.

Time Position Orientation Groundspeed Altitude Reporting Facility
EDT Latitude Longitude Course Direction KTS MPH feet Rate Location/Type
05:05PM 32.6928 -80.1772 273° West 247 284 6,600  Level Jacksonville Center
05:06PM 32.6967 -80.2711 273° West 267 307 9,700 2,220 Climbing Jacksonville Center
05:07PM 32.7342 -80.3636 296° West 290 334 11,100 1,080 Climbing Jacksonville Center
05:08PM 32.7656 -80.4764 288° West 310 357 11,900 900 Climbing Jacksonville Center
05:09PM 32.7633 -80.5853 269° West 323 372 13,000 900 Climbing Jacksonville Center
05:10PM 32.7444 -80.6919 258° West 335 386 13,800 780 Climbing Jacksonville Center
05:11PM 32.7108 -80.7989 250° West 335 386 14,600 1,140 Climbing Jacksonville Center
05:12PM 32.6750 -80.9108 249° West 347 399 16,100 1,740 Climbing Jacksonville Center
05:13PM 32.6392 -81.0225 249° West 376 433 18,100 1,800 Climbing Jacksonville Center
05:14PM 32.6033 -81.1367 250° West 368 423 19,800 1,620 Climbing Jacksonville Center
05:15PM 32.5881 -81.2578 262° West 373 429 21,400 1,620 Climbing Jacksonville Center
05:16PM 32.5853 -81.3714 268° West 382 440 23,100 1,440 Climbing Jacksonville Center
05:17PM 32.5828 -81.5144 269° West 392 451 24,300 1,200 Climbing Jacksonville Center
05:18PM 32.5822 -81.6450 270° West 402 463 25,600 1,140 Climbing Jacksonville Center
05:20PM 32.5783 -81.9461 269° West 414 476 28,200 1,200 Climbing Atlanta Center
05:21PM 32.5744 -82.0867 268° West 429 494 29,600 1,320 Climbing Atlanta Center
05:22PM 32.5725 -82.2297 269° West 434 499 30,900 1,380 Climbing Atlanta Center
05:23PM 32.5681 -82.3753 268° West 439 505 32,400 1,800 Climbing Atlanta Center
05:24PM 32.5658 -82.5181 269° West 439 505 34,500 2,400 Climbing Atlanta Center
05:25PM 32.5653 -82.6536 270° West 433 498 37,200 2,460 Climbing Atlanta Center
05:26PM 32.5625 -82.7869 269° West 424 488 39,500 1,380 Climbing Atlanta Center
05:27PM 32.5389 -82.9300 259° West 424 488 40,000 1,140 Climbing Atlanta Center
05:28PM 32.5089 -83.0658 255° West 430 495 41,800 1,500 Climbing Atlanta Center
05:29PM 32.4764 -83.2042 254° West 430 495 43,000 600 Climbing Atlanta Center
05:30PM 32.4417 -83.3422 253° West 435 501 43,000  Level Atlanta Center
05:31PM 32.4092 -83.4903 255° West 447 514 43,000  Level Atlanta Center
05:32PM 32.3722 -83.6428 254° West 467 537 43,000  Level Atlanta Center
05:33PM 32.3350 -83.7956 254° West 477 549 43,000  Level Atlanta Center
05:34PM 32.2997 -83.9481 255° West 477 549 43,000  Level Atlanta Center
05:35PM 32.2600 -84.1028 253° West 482 555 43,000  Level Atlanta Center
05:36PM 32.2203 -84.2719 255° West 488 562 43,000  Level Atlanta Center
05:37PM 32.1822 -84.4242 254° West 493 567 43,000  Level Atlanta Center
05:38PM 32.1442 -84.5761 254° West 493 567 43,000  Level Atlanta Center
05:39PM 32.1058 -84.7303 254° West 493 567 43,000  Level Atlanta Center
05:40PM 32.0653 -84.8844 253° West 493 567 43,000  Level Atlanta Center
05:41PM 32.0264 -85.0383 253° West 493 567 43,000  Level Atlanta Center
05:42PM 31.9875 -85.1897 253° West 493 567 43,000  Level Atlanta Center
05:43PM 31.9464 -85.3433 253° West 493 567 43,000  Level Atlanta Center
05:44PM 31.9092 -85.4944 254° West 493 567 43,000  Level Atlanta Center
05:45PM 31.8675 -85.6503 253° West 493 567 43,000  Level Atlanta Center
05:46PM 31.8300 -85.8086 254° West 498 573 43,000  Level Atlanta Center
05:47PM 31.7861 -85.9592 251° West 498 573 43,000  Level Atlanta Center
05:48PM 31.7458 -86.1122 253° West 498 573 43,000  Level Atlanta Center
05:49PM 31.7036 -86.2700 253° West 498 573 43,000  Level Atlanta Center
05:50PM 31.6653 -86.4250 254° West 498 573 43,000  Level Atlanta Center
05:51PM 31.6225 -86.5800 252° West 498 573 43,000  Level Atlanta Center
05:52PM 31.5817 -86.7325 253° West 498 573 43,000  Level Atlanta Center
05:53PM 31.5425 -86.8897 254° West 498 573 43,000  Level Atlanta Center
05:55PM 31.4781 -87.1236 252° West 503 579 43,000  Level Houston Center
05:56PM 31.4350 -87.2808 252° West 506 582 43,000  Level Houston Center
05:57PM 31.3917 -87.4375 252° West 508 585 43,000  Level Houston Center
05:58PM 31.3492 -87.5936 252° West 509 586 43,000  Level Houston Center
05:59PM 31.3061 -87.7500 252° West 508 585 43,000  Level Houston Center
06:00PM 31.2628 -87.9081 252° West 513 590 43,000 -1,260 Level Houston Center
06:01PM 31.2111 -88.0897 252° West 502 578 40,500 -2,520 Descending Houston Center
06:02PM 31.1656 -88.2389 250° West 491 565 37,900 -2,520 Descending Houston Center
06:03PM 31.1244 -88.3958 253° West 520 598 35,300 -2,580 Descending Houston Center
06:04PM 31.0789 -88.5511 251° West 511 588 32,600 -2,880 Descending Houston Center
06:05PM 31.0261 -88.7333 251° West 518 596 29,500 -2,880 Descending Houston Center
06:06PM 30.9814 -88.8853 251° West 502 578 26,800 -2,640 Descending Houston Center
06:07PM 30.9389 -89.0397 252° West 482 555 24,100 -2,460 Descending Houston Center
06:08PM 30.8986 -89.1764 251° West 453 521 21,800 -2,280 Descending Houston Center
06:09PM 30.8603 -89.3064 251° West 429 494 19,500 -2,280 Descending Houston Center
06:10PM 30.8219 -89.4364 251° West 429 494 17,200 -2,220 Descending Houston Center
06:11PM 30.7853 -89.5636 251° West 419 482 15,000 -2,220 Descending Houston Center
06:12PM 30.7553 -89.6658 251° West 376 433 13,300 -2,160 Descending Houston Center
06:13PM 30.7344 -89.7297 249° West 349 402 12,100 -1,860 Descending Houston Center
06:13PM 30.7133 -89.8036 252° West 352 405 10,900 -900 Descending Houston Center
06:15PM 30.6828 -89.9092 251° West 349 402 10,600 -960 Descending Houston Center
06:16PM 30.6567 -89.9978 251° West 300 345 9,000 -1,680 Descending Houston Center
06:17PM 30.6311 -90.0842 251° West 291 335 7,200 -1,800 Descending Houston Center
06:18PM 30.6058 -90.1675 251° West 284 327 5,400 -1,860 Descending Houston Center
06:19PM 30.5769 -90.2625 251° West 272 313 3,400 -1,740 Descending Houston Center
06:20PM 30.5531 -90.3392 250° West 263 303 1,900 -960 Descending Houston Center
06:21PM 30.5794 -90.4022 296° West 237 273 1,500 -540 Descending Houston Center
06:22PM 30.5808 -90.4483 272° West 193 222 900 -480 Descending Houston Center
06:23PM 30.5419 -90.4439 174° South 165 190 600 -300 Descending Houston Center
06:25PM 30.5167 -90.4167 164° South  Level FlightAware Approximate
06:32PM 30.5217 -90.4184 164° South  Level Estimated
06:33PM 30.5167 -90.4167 164° South  Level FlightAware Approximate
06:34PM 30.5217 -90.4184 164° South  Level Estimated
06:35PM 30.5167 -90.4167 164° South  Level FlightAware Approximate
06:36PM 30.5217 -90.4184 164° South  Level Estimated